Terminal Aerodrome Forecast
Issued by NWS Charleston, WV

Current Version | Previous Version | Text Only | Print | Product List | Glossary Off
Versions: 1 2 3 4 5 6 7 8 9 10 11 12 13 14 15 16 17 18 19 20 21 22 23 24

591
FTUS41 KRLX 221724
TAFEKN
TAF
KEKN 221724Z 2218/2318 33007KT P6SM SHRA SCT025 BKN040
     FM222000 33006KT 3SM SHRA VCTS BKN025CB
     FM222200 33005KT 5SM SHRA BKN025
     FM230100 33004KT 5SM -SHRA OVC013
     FM230700 VRB02KT 1/4SM FG BKN003
     FM231400 VRB03KT P6SM -SHRA BKN015=

USA.gov is the U.S. government's official web portal to all federal, state and local government web resources and services.